createdAt,value
2022-10-19T00:00:44.610Z,1.13
2022-10-19T00:02:46.173Z,1.25
2022-10-19T00:04:47.621Z,1.52
2022-10-19T00:06:49.069Z,1.50
2022-10-19T00:08:50.484Z,1.00
2022-10-19T00:10:52.105Z,1.58
2022-10-19T00:12:53.764Z,1.00
2022-10-19T00:14:55.307Z,1.30
2022-10-19T00:16:58.110Z,1.38
2022-10-19T00:19:01.390Z,1.27
2022-10-19T00:21:09.234Z,1.15
2022-10-19T00:23:10.694Z,1.27
2022-10-19T00:25:12.137Z,1.15
2022-10-19T00:27:13.623Z,1.20
2022-10-19T00:29:16.127Z,1.40
2022-10-19T00:31:18.089Z,1.15
2022-10-19T00:33:22.305Z,1.80
2022-10-19T00:35:23.746Z,2.13
2022-10-19T00:37:25.183Z,1.10
2022-10-19T00:39:26.654Z,1.75
2022-10-19T00:41:31.349Z,1.13
2022-10-19T00:43:32.834Z,1.23
2022-10-19T00:45:34.271Z,1.60
2022-10-19T00:47:35.722Z,0.98
2022-10-19T00:49:42.521Z,1.23
2022-10-19T00:51:47.756Z,1.13
2022-10-19T00:53:49.279Z,1.58
2022-10-19T00:55:50.967Z,2.15
2022-10-19T00:57:52.595Z,1.33
2022-10-19T00:59:54.983Z,1.42
2022-10-19T01:01:56.573Z,1.45
2022-10-19T01:03:58.529Z,1.50
2022-10-19T01:06:01.076Z,1.38
2022-10-19T01:08:02.934Z,1.50
2022-10-19T01:10:04.989Z,1.02
2022-10-19T01:12:09.497Z,0.90
2022-10-19T01:14:32.921Z,1.33
2022-10-19T01:16:51.428Z,1.10
2022-10-19T01:19:23.990Z,1.42
2022-10-19T01:21:29.134Z,2.80
2022-10-19T01:23:33.447Z,1.08
2022-10-19T01:25:59.316Z,1.25
2022-10-19T01:28:19.118Z,1.20
2022-10-19T01:30:26.978Z,1.42
2022-10-19T01:32:55.589Z,1.17
2022-10-19T01:35:26.078Z,1.02
2022-10-19T01:37:35.790Z,1.30
2022-10-19T01:39:52.537Z,1.50
2022-10-19T01:42:06.209Z,1.20
2022-10-19T01:44:27.972Z,1.00
2022-10-19T01:46:38.114Z,1.00
2022-10-19T01:48:45.346Z,0.77
2022-10-19T01:50:58.845Z,1.33
2022-10-19T01:53:00.873Z,1.10
2022-10-19T01:55:03.641Z,0.98
2022-10-19T01:57:08.597Z,1.10
2022-10-19T01:59:12.273Z,1.33
2022-10-19T02:01:19.421Z,1.05
2022-10-19T02:03:21.463Z,1.13
2022-10-19T02:05:28.366Z,1.25
2022-10-19T02:07:30.577Z,1.02
2022-10-19T02:09:32.057Z,0.90
2022-10-19T02:11:35.576Z,1.33
2022-10-19T02:13:39.388Z,1.08
2022-10-19T02:15:46.639Z,1.15
2022-10-19T02:17:52.039Z,1.55
2022-10-19T02:19:54.235Z,1.48
2022-10-19T02:21:56.440Z,0.85
2022-10-19T02:23:57.856Z,1.10
2022-10-19T02:25:59.628Z,1.20
2022-10-19T02:28:02.836Z,0.85
2022-10-19T02:30:04.761Z,1.20
2022-10-19T02:32:07.283Z,1.25
2022-10-19T02:34:09.694Z,1.25
2022-10-19T02:36:11.297Z,1.35
2022-10-19T02:38:19.719Z,1.52
2022-10-19T02:40:22.083Z,1.13
2022-10-19T02:42:36.349Z,1.35
2022-10-19T02:45:07.436Z,0.80
2022-10-19T02:47:17.396Z,0.90
2022-10-19T02:49:19.636Z,1.30
2022-10-19T02:51:39.470Z,1.00
2022-10-19T02:53:40.880Z,1.08
2022-10-19T02:55:42.803Z,1.00
2022-10-19T02:57:44.297Z,1.10
2022-10-19T02:59:46.432Z,1.00
2022-10-19T03:01:48.098Z,1.15
2022-10-19T03:03:49.553Z,1.10
2022-10-19T03:05:50.952Z,1.42
2022-10-19T03:07:52.415Z,1.10
2022-10-19T03:09:54.208Z,1.00
2022-10-19T03:11:56.166Z,1.25
2022-10-19T03:13:57.624Z,0.93
2022-10-19T03:16:06.272Z,1.20
2022-10-19T03:20:10.171Z,1.17
2022-10-19T03:22:13.717Z,1.30
2022-10-19T03:24:15.322Z,1.67
2022-10-19T03:26:17.601Z,0.90
2022-10-19T03:28:19.034Z,0.95
2022-10-19T03:30:20.454Z,0.95
2022-10-19T03:32:21.911Z,1.10
2022-10-19T03:34:23.406Z,0.85
2022-10-19T03:36:32.012Z,0.80
2022-10-19T03:38:33.433Z,1.33
2022-10-19T03:40:34.906Z,0.95
2022-10-19T03:42:36.450Z,1.58
2022-10-19T03:44:37.899Z,0.82
2022-10-19T03:46:40.191Z,0.82
2022-10-19T03:48:42.197Z,0.85
2022-10-19T03:50:43.650Z,0.93
2022-10-19T03:52:45.129Z,1.10
2022-10-19T03:54:49.551Z,1.50
2022-10-19T03:56:50.977Z,1.00
2022-10-19T03:58:54.074Z,1.60
2022-10-19T04:00:55.584Z,1.20
2022-10-19T04:02:57.025Z,1.92
2022-10-19T04:04:58.509Z,0.77
2022-10-19T04:07:00.246Z,0.80
2022-10-19T04:09:03.619Z,1.00
2022-10-19T04:11:07.624Z,1.10
2022-10-19T04:13:09.139Z,1.63
2022-10-19T04:15:10.770Z,1.00
2022-10-19T04:17:12.205Z,1.10
2022-10-19T04:19:15.893Z,1.58
2022-10-19T04:21:38.075Z,1.20
2022-10-19T04:23:39.505Z,0.90
2022-10-19T04:25:40.946Z,1.10
2022-10-19T04:27:49.890Z,1.13
2022-10-19T04:29:51.347Z,1.08
2022-10-19T04:31:52.991Z,1.30
2022-10-19T04:33:55.112Z,0.77
2022-10-19T04:36:00.226Z,1.38
2022-10-19T04:38:01.737Z,0.90
2022-10-19T04:40:04.636Z,1.00
2022-10-19T04:42:06.131Z,1.02
2022-10-19T04:44:08.962Z,1.33
2022-10-19T04:46:13.930Z,1.10
2022-10-19T04:48:15.414Z,1.45
2022-10-19T04:50:17.057Z,1.83
2022-10-19T04:52:18.472Z,1.45
2022-10-19T04:54:19.886Z,1.25
2022-10-19T04:56:23.629Z,1.45
2022-10-19T04:58:25.214Z,1.65
2022-10-19T05:00:26.617Z,1.20
2022-10-19T05:02:28.056Z,1.48
2022-10-19T05:04:29.536Z,1.90
2022-10-19T05:06:31.959Z,1.70
2022-10-19T05:08:33.659Z,1.27
2022-10-19T05:10:36.397Z,1.65
2022-10-19T05:12:37.861Z,1.65
2022-10-19T05:14:42.008Z,1.55
2022-10-19T05:16:44.427Z,1.50
2022-10-19T05:19:04.175Z,0.90
2022-10-19T05:21:08.269Z,1.33
2022-10-19T05:23:09.732Z,1.23
2022-10-19T05:25:11.233Z,1.05
2022-10-19T05:27:12.741Z,1.13
2022-10-19T05:29:14.651Z,1.33
2022-10-19T05:31:18.359Z,0.90
2022-10-19T05:33:19.797Z,1.10
2022-10-19T05:35:22.622Z,1.20
2022-10-19T05:37:25.687Z,1.50
2022-10-19T05:39:27.290Z,1.10
2022-10-19T05:41:28.841Z,0.70
2022-10-19T05:43:30.293Z,1.58
2022-10-19T05:45:31.758Z,0.95
2022-10-19T05:47:34.246Z,0.95
2022-10-19T05:49:35.968Z,1.00
2022-10-19T05:51:37.935Z,0.90
2022-10-19T05:53:39.944Z,0.90
2022-10-19T05:55:41.485Z,0.80
2022-10-19T05:57:42.966Z,0.88
2022-10-19T05:59:44.432Z,1.83
2022-10-19T06:01:46.780Z,1.17
2022-10-19T06:03:52.628Z,1.20
2022-10-19T06:05:55.208Z,2.17
2022-10-19T06:07:56.743Z,1.50
2022-10-19T06:09:58.211Z,1.25
2022-10-19T06:11:59.659Z,1.13
2022-10-19T06:14:02.758Z,1.13
2022-10-19T06:16:05.583Z,1.33
2022-10-19T06:18:08.310Z,1.10
2022-10-19T06:20:10.170Z,1.02
2022-10-19T06:22:11.624Z,0.80
2022-10-19T06:24:13.184Z,0.90
2022-10-19T06:26:15.114Z,1.10
2022-10-19T06:28:16.590Z,1.05
2022-10-19T06:30:18.057Z,0.98
2022-10-19T06:32:19.884Z,1.77
2022-10-19T06:34:21.442Z,0.90
2022-10-19T06:36:25.362Z,0.95
2022-10-19T06:38:26.842Z,1.33
2022-10-19T06:40:28.317Z,0.93
2022-10-19T06:42:29.833Z,1.20
2022-10-19T06:44:31.260Z,1.30
2022-10-19T06:46:33.847Z,1.80
2022-10-19T06:48:35.591Z,1.23
2022-10-19T06:50:37.036Z,0.70
2022-10-19T06:52:40.712Z,0.77
2022-10-19T06:54:42.144Z,1.10
2022-10-19T06:56:43.623Z,1.42
2022-10-19T06:58:45.590Z,1.27
2022-10-19T07:00:57.685Z,0.90
2022-10-19T07:02:59.550Z,1.45
2022-10-19T07:05:06.073Z,1.20
2022-10-19T07:07:08.696Z,1.13
2022-10-19T07:09:10.177Z,0.77
2022-10-19T07:11:15.945Z,0.60
2022-10-19T07:13:17.430Z,0.68
2022-10-19T07:15:18.889Z,1.05
2022-10-19T07:17:20.318Z,0.77
2022-10-19T07:19:22.504Z,1.00
2022-10-19T07:21:24.003Z,1.27
2022-10-19T07:23:27.119Z,0.80
2022-10-19T07:25:30.111Z,0.70
2022-10-19T07:27:37.395Z,1.17
2022-10-19T07:29:39.210Z,1.23
2022-10-19T07:31:41.582Z,0.90
2022-10-19T07:33:43.098Z,1.00
2022-10-19T07:35:44.557Z,1.67
2022-10-19T07:37:46.004Z,1.63
2022-10-19T07:39:47.411Z,1.30
2022-10-19T07:41:48.883Z,0.93
2022-10-19T07:43:51.682Z,2.03
2022-10-19T07:46:01.574Z,1.92
2022-10-19T07:48:02.997Z,0.90
2022-10-19T07:50:04.832Z,1.38
2022-10-19T07:52:06.271Z,1.17
2022-10-19T07:54:08.493Z,1.13
2022-10-19T07:56:15.745Z,1.05
2022-10-19T07:58:17.183Z,1.00
2022-10-19T08:00:18.629Z,1.13
2022-10-19T08:02:20.364Z,1.10
2022-10-19T08:06:43.327Z,1.17
2022-10-19T08:08:46.404Z,1.42
2022-10-19T08:10:47.871Z,2.05
2022-10-19T08:12:49.299Z,1.60
2022-10-19T08:14:50.733Z,1.40
2022-10-19T08:16:52.145Z,1.02
2022-10-19T08:18:58.025Z,1.73
2022-10-19T08:21:02.434Z,0.82
2022-10-19T08:23:03.896Z,1.85
2022-10-19T08:25:06.158Z,0.90
2022-10-19T08:27:07.560Z,1.02
2022-10-19T08:29:15.297Z,0.90
2022-10-19T08:31:19.670Z,0.73
2022-10-19T08:33:21.121Z,0.95
2022-10-19T08:35:22.596Z,1.00
2022-10-19T08:37:40.372Z,0.88
2022-10-19T08:39:45.404Z,1.10
2022-10-19T08:41:49.741Z,0.90
2022-10-19T08:44:12.749Z,1.08
2022-10-19T08:46:23.497Z,0.98
2022-10-19T08:48:29.308Z,0.80
2022-10-19T08:50:39.438Z,1.52
2022-10-19T08:52:43.229Z,1.40
2022-10-19T08:54:55.480Z,1.33
2022-10-19T08:57:21.053Z,0.93
2022-10-19T08:59:44.934Z,0.90
2022-10-19T09:02:10.520Z,1.15
2022-10-19T09:04:22.138Z,1.08
2022-10-19T09:06:27.247Z,0.85
2022-10-19T09:08:28.980Z,1.25
2022-10-19T09:10:35.682Z,0.98
2022-10-19T09:12:55.129Z,0.68
2022-10-19T09:15:03.773Z,1.15
2022-10-19T09:17:17.036Z,0.80
2022-10-19T09:19:25.542Z,1.10
2022-10-19T09:21:46.092Z,1.27
2022-10-19T09:23:55.316Z,1.10
2022-10-19T09:25:57.760Z,0.90
2022-10-19T09:28:16.818Z,0.90
2022-10-19T09:30:21.136Z,1.17
2022-10-19T09:32:29.230Z,0.80
2022-10-19T09:34:36.580Z,0.82
2022-10-19T09:36:50.439Z,0.80
2022-10-19T09:38:52.381Z,1.33
2022-10-19T09:40:53.836Z,1.20
2022-10-19T09:42:59.511Z,0.80
2022-10-19T09:45:11.833Z,0.95
2022-10-19T09:47:33.314Z,1.08
2022-10-19T09:49:43.445Z,0.77
2022-10-19T09:51:50.486Z,1.33
2022-10-19T09:53:54.530Z,0.90
2022-10-19T09:56:07.780Z,0.77
2022-10-19T09:58:17.119Z,1.20
2022-10-19T10:00:21.289Z,0.93
2022-10-19T10:02:30.192Z,1.10
2022-10-19T10:04:31.876Z,0.88
2022-10-19T10:06:34.841Z,1.10
2022-10-19T10:08:39.433Z,1.10
2022-10-19T10:10:49.102Z,1.45
2022-10-19T10:12:52.900Z,1.25
2022-10-19T10:14:56.334Z,1.10
2022-10-19T10:17:03.400Z,1.02
2022-10-19T10:19:11.757Z,0.90
2022-10-19T10:21:33.664Z,1.10
2022-10-19T10:23:36.640Z,0.82
2022-10-19T10:25:38.347Z,0.82
2022-10-19T10:27:40.263Z,1.35
2022-10-19T10:32:20.201Z,0.88
2022-10-19T10:34:58.353Z,1.38
2022-10-19T10:37:04.424Z,0.73
2022-10-19T10:39:08.341Z,1.27
2022-10-19T10:41:12.057Z,1.08
2022-10-19T10:43:18.044Z,0.88
2022-10-19T10:45:34.560Z,0.98
2022-10-19T10:47:39.301Z,1.40
2022-10-19T10:49:42.644Z,0.80
2022-10-19T10:51:49.276Z,1.55
2022-10-19T10:54:16.411Z,0.82
2022-10-19T10:56:29.742Z,0.82
2022-10-19T10:58:44.335Z,0.80
2022-10-19T11:00:48.045Z,0.95
2022-10-19T11:03:26.547Z,1.20
2022-10-19T11:05:37.483Z,1.58
2022-10-19T11:07:44.909Z,0.60
2022-10-19T11:10:03.360Z,0.88
2022-10-19T11:14:41.498Z,0.90
2022-10-19T11:16:45.989Z,1.10
2022-10-19T11:18:56.485Z,0.95
2022-10-19T11:21:13.002Z,0.85
2022-10-19T11:23:26.908Z,1.00
2022-10-19T11:25:43.893Z,0.93
2022-10-19T11:28:17.272Z,1.00
2022-10-19T11:30:20.790Z,1.08
2022-10-19T11:32:25.216Z,0.90
2022-10-19T11:34:32.760Z,1.08
2022-10-19T11:36:50.025Z,0.88
2022-10-19T11:39:21.751Z,1.00
2022-10-19T11:41:37.590Z,0.70
2022-10-19T11:43:50.339Z,0.90
2022-10-19T11:46:13.691Z,1.00
2022-10-19T11:48:30.850Z,1.05
2022-10-19T11:51:04.123Z,0.85
2022-10-19T11:53:48.537Z,1.83
2022-10-19T11:56:07.420Z,1.23
2022-10-19T11:58:35.296Z,0.98
2022-10-19T12:00:50.326Z,0.90
2022-10-19T12:03:18.031Z,0.95
2022-10-19T12:06:00.857Z,1.40
2022-10-19T12:08:23.283Z,0.70
2022-10-19T12:10:32.654Z,0.68
2022-10-19T12:12:38.894Z,1.30
2022-10-19T12:14:43.756Z,1.00
2022-10-19T12:16:53.368Z,1.20
2022-10-19T12:19:00.489Z,1.02
2022-10-19T12:21:14.682Z,0.65
2022-10-19T12:23:38.414Z,0.70
2022-10-19T12:25:43.849Z,0.80
2022-10-19T12:27:47.719Z,0.90
2022-10-19T12:29:50.013Z,0.90
2022-10-19T12:31:53.760Z,0.90
2022-10-19T12:34:13.161Z,1.08
2022-10-19T12:36:32.674Z,0.70
2022-10-19T12:39:00.210Z,1.10
2022-10-19T12:41:27.352Z,1.02
2022-10-19T12:43:43.437Z,1.00
2022-10-19T12:46:22.226Z,0.65
2022-10-19T12:48:24.663Z,0.90
2022-10-19T12:50:47.855Z,1.35
2022-10-19T12:52:52.233Z,1.25
2022-10-19T12:54:53.699Z,0.90
2022-10-19T12:56:58.949Z,0.90
2022-10-19T12:59:01.684Z,0.60
2022-10-19T13:01:05.954Z,0.70
2022-10-19T13:03:13.447Z,0.85
2022-10-19T13:05:22.987Z,0.80
2022-10-19T13:07:26.590Z,1.27
2022-10-19T13:09:38.659Z,1.05
2022-10-19T13:12:19.389Z,0.88
2022-10-19T13:14:49.896Z,0.80
2022-10-19T13:17:00.285Z,0.98
2022-10-19T13:19:13.975Z,0.90
2022-10-19T13:21:53.917Z,1.17
2022-10-19T13:24:23.946Z,0.85
2022-10-19T13:26:33.858Z,0.80
2022-10-19T13:28:37.444Z,0.90
2022-10-19T13:30:42.253Z,0.98
2022-10-19T13:32:45.112Z,0.98
2022-10-19T13:34:47.233Z,1.02
2022-10-19T13:37:03.099Z,0.93
2022-10-19T13:39:10.158Z,1.00
2022-10-19T13:41:16.183Z,1.00
2022-10-19T13:43:21.067Z,1.13
2022-10-19T13:45:24.587Z,0.95
2022-10-19T13:47:32.827Z,0.80
2022-10-19T13:49:51.974Z,2.05
2022-10-19T13:52:18.474Z,0.70
2022-10-19T13:54:41.866Z,1.02
2022-10-19T13:56:49.454Z,0.70
2022-10-19T13:59:10.065Z,0.90
2022-10-19T14:01:47.058Z,1.00
2022-10-19T14:04:00.550Z,0.95
2022-10-19T14:06:36.185Z,0.73
2022-10-19T14:08:56.469Z,1.23
2022-10-19T14:11:12.386Z,1.17
2022-10-19T14:13:15.482Z,1.25
2022-10-19T14:15:27.873Z,0.88
2022-10-19T14:17:34.171Z,0.90
2022-10-19T14:20:02.626Z,0.70
2022-10-19T14:22:37.936Z,1.65
2022-10-19T14:24:39.633Z,1.20
2022-10-19T14:26:41.265Z,0.70
2022-10-19T14:28:43.535Z,1.17
2022-10-19T14:30:53.804Z,1.30
2022-10-19T14:32:59.394Z,0.90
2022-10-19T14:35:16.045Z,0.77
2022-10-19T14:37:21.221Z,0.90
2022-10-19T14:39:30.611Z,0.80
2022-10-19T14:41:36.157Z,1.00
2022-10-19T14:43:37.875Z,0.93
2022-10-19T14:45:39.337Z,0.90
2022-10-19T14:47:53.190Z,1.20
2022-10-19T14:49:54.672Z,1.17
2022-10-19T14:52:03.128Z,0.88
2022-10-19T14:54:12.023Z,1.35
2022-10-19T14:56:48.608Z,0.90
2022-10-19T14:59:07.524Z,1.05
2022-10-19T15:01:10.447Z,1.33
2022-10-19T15:03:20.557Z,0.68
2022-10-19T15:05:26.255Z,0.80
2022-10-19T15:07:36.470Z,0.80
2022-10-19T15:09:48.354Z,0.70
2022-10-19T15:11:51.080Z,1.40
2022-10-19T15:14:02.380Z,0.93
2022-10-19T15:16:04.008Z,0.70
2022-10-19T15:18:06.918Z,1.00
2022-10-19T15:20:24.582Z,0.73
2022-10-19T15:22:32.327Z,1.45
2022-10-19T15:24:34.214Z,1.00
2022-10-19T15:26:35.747Z,0.80
2022-10-19T15:28:41.561Z,0.88
2022-10-19T15:30:43.371Z,0.88
2022-10-19T15:32:47.841Z,1.23
2022-10-19T15:34:49.347Z,0.95
2022-10-19T15:36:58.978Z,1.05
2022-10-19T15:39:18.097Z,0.80
2022-10-19T15:41:34.817Z,1.27
2022-10-19T15:43:46.031Z,0.90
2022-10-19T15:45:47.506Z,0.70
2022-10-19T15:48:16.183Z,0.60
2022-10-19T15:50:45.112Z,0.80
2022-10-19T15:52:46.520Z,1.10
2022-10-19T15:54:49.434Z,0.90
2022-10-19T15:56:52.261Z,0.88
2022-10-19T15:58:56.456Z,1.20
2022-10-19T16:00:57.877Z,1.05
2022-10-19T16:02:59.601Z,1.20
2022-10-19T16:05:01.048Z,1.00
2022-10-19T16:07:02.570Z,2.08
2022-10-19T16:09:04.458Z,1.00
2022-10-19T16:11:06.010Z,1.30
2022-10-19T16:13:07.457Z,1.30
2022-10-19T16:15:13.008Z,1.25
2022-10-19T16:17:15.198Z,1.15
2022-10-19T16:19:16.684Z,1.60
2022-10-19T16:21:20.450Z,1.50
2022-10-19T16:23:22.010Z,1.50
2022-10-19T16:25:23.664Z,1.55
2022-10-19T16:27:25.115Z,1.60
2022-10-19T16:29:28.919Z,1.55
2022-10-19T16:31:31.568Z,1.67
2022-10-19T16:33:33.408Z,1.70
2022-10-19T16:35:37.289Z,1.67
2022-10-19T16:37:38.761Z,2.05
2022-10-19T16:39:40.227Z,2.20
2022-10-19T16:41:41.657Z,2.30
2022-10-19T16:43:43.520Z,2.25
2022-10-19T16:45:45.042Z,1.67
2022-10-19T16:47:50.130Z,2.47
2022-10-19T16:50:00.041Z,2.22
2022-10-19T16:52:01.739Z,2.83
2022-10-19T16:54:05.771Z,2.25
2022-10-19T16:56:12.655Z,2.10
2022-10-19T16:58:14.122Z,3.13
2022-10-19T17:00:15.643Z,4.07
2022-10-19T17:02:17.476Z,3.00
2022-10-19T17:04:19.019Z,2.22
2022-10-19T17:06:21.340Z,2.05
2022-10-19T17:08:36.470Z,1.80
2022-10-19T17:10:38.712Z,1.77
2022-10-19T17:12:40.829Z,2.20
2022-10-19T17:14:42.464Z,2.22
2022-10-19T17:16:43.993Z,2.53
2022-10-19T17:18:45.989Z,2.50
2022-10-19T17:20:47.416Z,2.08
2022-10-19T17:22:51.828Z,2.17
2022-10-19T17:24:55.399Z,2.00
2022-10-19T17:26:57.106Z,2.42
2022-10-19T17:29:00.066Z,2.10
2022-10-19T17:31:07.274Z,2.20
2022-10-19T17:33:08.711Z,2.53
2022-10-19T17:35:10.272Z,2.85
2022-10-19T17:37:11.982Z,2.63
2022-10-19T17:39:25.542Z,3.20
2022-10-19T17:41:31.065Z,6.28
2022-10-19T17:43:32.920Z,14.95
2022-10-19T17:45:34.656Z,5.28
2022-10-19T17:47:36.371Z,8.93
2022-10-19T17:49:38.343Z,5.95
2022-10-19T17:51:40.523Z,4.40
2022-10-19T17:53:43.780Z,2.60
2022-10-19T17:55:45.255Z,4.55
2022-10-19T17:57:46.787Z,5.90
2022-10-19T17:59:52.817Z,12.05
2022-10-19T18:01:54.789Z,7.43
2022-10-19T18:03:56.905Z,8.85
2022-10-19T18:06:04.610Z,4.63
2022-10-19T18:08:08.388Z,3.72
2022-10-19T18:10:10.208Z,3.20
2022-10-19T18:12:13.339Z,2.90
2022-10-19T18:14:14.868Z,3.17
2022-10-19T18:16:24.312Z,3.60
2022-10-19T18:18:26.103Z,2.90
2022-10-19T18:20:27.541Z,3.28
2022-10-19T18:22:29.053Z,3.03
2022-10-19T18:24:30.562Z,3.70
2022-10-19T18:26:34.152Z,4.05
2022-10-19T18:28:35.813Z,4.35
2022-10-19T18:30:38.444Z,4.28
2022-10-19T18:32:39.962Z,4.25
2022-10-19T18:34:41.449Z,4.93
2022-10-19T18:36:43.042Z,2.97
2022-10-19T18:38:44.790Z,3.88
2022-10-19T18:40:46.269Z,3.33
2022-10-19T18:42:47.756Z,4.57
2022-10-19T18:44:49.295Z,4.05
2022-10-19T18:46:50.766Z,3.97
2022-10-19T18:48:53.575Z,3.10
2022-10-19T18:50:55.967Z,3.00
2022-10-19T18:52:57.388Z,3.20
2022-10-19T18:54:58.796Z,3.30
2022-10-19T18:57:00.322Z,2.42
2022-10-19T18:59:02.208Z,2.80
2022-10-19T19:01:10.812Z,2.70
2022-10-19T19:05:13.775Z,2.40
2022-10-19T19:07:15.227Z,2.28
2022-10-19T19:09:18.780Z,2.40
2022-10-19T19:11:25.894Z,2.40
2022-10-19T19:13:27.747Z,2.50
2022-10-19T19:15:29.182Z,2.50
2022-10-19T19:17:30.639Z,2.83
2022-10-19T19:19:32.228Z,2.40
2022-10-19T19:21:35.590Z,2.70
2022-10-19T19:23:37.015Z,2.80
2022-10-19T19:25:40.312Z,2.95
2022-10-19T19:27:41.726Z,2.67
2022-10-19T19:29:43.283Z,2.50
2022-10-19T19:31:44.946Z,2.70
2022-10-19T19:33:47.469Z,3.10
2022-10-19T19:35:50.341Z,3.53
2022-10-19T19:37:51.758Z,2.72
2022-10-19T19:39:53.202Z,3.00
2022-10-19T19:41:54.658Z,2.83
2022-10-19T19:43:57.907Z,2.88
2022-10-19T19:46:04.613Z,2.80
2022-10-19T19:48:10.434Z,2.88
2022-10-19T19:50:11.847Z,3.20
2022-10-19T19:52:13.276Z,3.65
2022-10-19T19:54:15.107Z,3.35
2022-10-19T19:56:17.851Z,3.28
2022-10-19T19:58:19.283Z,3.25
2022-10-19T20:00:22.444Z,3.40
2022-10-19T20:02:23.872Z,3.45
2022-10-19T20:04:25.290Z,3.40
2022-10-19T20:06:26.858Z,4.15
2022-10-19T20:08:28.360Z,4.30
2022-10-19T20:10:29.838Z,3.90
2022-10-19T20:12:31.306Z,3.83
2022-10-19T20:14:32.729Z,3.72
2022-10-19T20:16:34.326Z,3.55
2022-10-19T20:18:36.127Z,3.67
2022-10-19T20:20:40.111Z,3.53
2022-10-19T20:22:46.447Z,3.53
2022-10-19T20:24:47.869Z,3.50
2022-10-19T20:26:49.286Z,3.38
2022-10-19T20:28:51.602Z,3.28
2022-10-19T20:31:05.768Z,3.70
2022-10-19T20:33:07.211Z,3.47
2022-10-19T20:35:09.066Z,3.40
2022-10-19T20:37:10.502Z,3.35
2022-10-19T20:39:11.949Z,2.72
2022-10-19T20:41:13.438Z,3.80
2022-10-19T20:43:15.266Z,4.07
2022-10-19T20:45:16.774Z,3.70
2022-10-19T20:47:18.207Z,3.10
2022-10-19T20:49:19.664Z,3.15
2022-10-19T20:51:31.694Z,3.38
2022-10-19T20:53:33.891Z,2.72
2022-10-19T20:55:35.345Z,2.80
2022-10-19T20:57:36.785Z,3.20
2022-10-19T20:59:39.542Z,3.20
2022-10-19T21:01:42.404Z,3.03
2022-10-19T21:03:49.850Z,2.42
2022-10-19T21:05:51.284Z,2.78
2022-10-19T21:07:53.160Z,2.28
2022-10-19T21:09:54.677Z,3.00
2022-10-19T21:11:56.188Z,2.67
2022-10-19T21:14:01.764Z,2.47
2022-10-19T21:16:17.638Z,2.83
2022-10-19T21:18:19.140Z,2.70
2022-10-19T21:20:20.564Z,2.90
2022-10-19T21:22:22.026Z,2.45
2022-10-19T21:24:26.691Z,2.53
2022-10-19T21:26:28.628Z,2.10
2022-10-19T21:28:30.041Z,2.30
2022-10-19T21:30:31.461Z,2.67
2022-10-19T21:32:33.053Z,2.47
2022-10-19T21:34:34.476Z,2.50
2022-10-19T21:36:35.939Z,2.38
2022-10-19T21:38:37.714Z,2.70
2022-10-19T21:40:39.122Z,3.05
2022-10-19T21:42:40.544Z,2.55
2022-10-19T21:44:41.953Z,2.05
2022-10-19T21:46:44.413Z,2.42
2022-10-19T21:48:46.192Z,2.30
2022-10-19T21:50:48.303Z,3.88
2022-10-19T21:52:49.720Z,2.13
2022-10-19T21:54:51.193Z,2.13
2022-10-19T21:56:53.395Z,2.30
2022-10-19T21:58:55.447Z,2.20
2022-10-19T22:01:07.031Z,2.28
2022-10-19T22:03:09.393Z,2.22
2022-10-19T22:05:10.820Z,2.08
2022-10-19T22:07:12.260Z,2.20
2022-10-19T22:09:20.484Z,2.40
2022-10-19T22:11:22.500Z,2.10
2022-10-19T22:13:23.958Z,1.88
2022-10-19T22:15:25.396Z,2.10
2022-10-19T22:17:26.821Z,1.75
2022-10-19T22:19:28.280Z,2.08
2022-10-19T22:21:31.755Z,2.10
2022-10-19T22:23:33.220Z,2.22
2022-10-19T22:25:35.825Z,1.70
2022-10-19T22:27:37.248Z,2.10
2022-10-19T22:29:38.702Z,2.13
2022-10-19T22:31:40.204Z,1.80
2022-10-19T22:33:41.683Z,2.20
2022-10-19T22:35:43.146Z,1.80
2022-10-19T22:37:44.585Z,1.80
2022-10-19T22:39:46.060Z,1.77
2022-10-19T22:41:47.740Z,1.70
2022-10-19T22:43:49.178Z,1.80
2022-10-19T22:45:50.799Z,1.50
2022-10-19T22:47:52.247Z,1.80
2022-10-19T22:49:53.687Z,1.55
2022-10-19T22:51:55.092Z,2.13
2022-10-19T22:53:56.530Z,1.70
2022-10-19T22:55:57.956Z,1.85
2022-10-19T22:57:59.459Z,1.83
2022-10-19T23:00:00.905Z,5.53
2022-10-19T23:02:02.381Z,2.92
2022-10-19T23:04:04.059Z,2.40
2022-10-19T23:06:09.510Z,3.53
2022-10-19T23:08:10.941Z,1.95
2022-10-19T23:10:12.704Z,1.92
2022-10-19T23:12:14.172Z,1.85
2022-10-19T23:14:15.902Z,1.77
2022-10-19T23:16:17.472Z,2.03
2022-10-19T23:18:19.548Z,2.22
2022-10-19T23:20:20.981Z,1.98
2022-10-19T23:22:22.517Z,1.83
2022-10-19T23:24:24.286Z,2.28
2022-10-19T23:26:25.805Z,1.60
2022-10-19T23:28:27.891Z,1.67
2022-10-19T23:30:29.300Z,1.95
2022-10-19T23:32:30.883Z,1.98
2022-10-19T23:34:32.434Z,1.85
2022-10-19T23:36:33.897Z,2.20
2022-10-19T23:38:36.200Z,1.77
2022-10-19T23:40:37.607Z,1.92
2022-10-19T23:42:39.092Z,1.80
2022-10-19T23:44:40.568Z,2.17
2022-10-19T23:46:42.050Z,2.30
2022-10-19T23:48:46.563Z,1.95
2022-10-19T23:51:03.579Z,2.47
2022-10-19T23:53:05.018Z,2.25
2022-10-19T23:55:07.181Z,2.60
2022-10-19T23:57:08.600Z,1.92
2022-10-19T23:59:10.021Z,1.95
